Time;durP1;ratioP1;P1;durP2;ratioP2;P2;SDS_P1;SDS_P2;PMS_P1;PMS_P2;Temp;Humidity;BMP_temperature;BMP_pressure;BME280_temperature;BME280_humidity;BME280_pressure;Samples;Min_cycle;Max_cycle;Signal;HPM_P1;HPM_P2
2023/06/16 00:00:55;;;;;;;14.00;10.57;;;17.90;99.90;;;;;;4998420;28;20039;-71
2023/06/16 00:03:21;;;;;;;13.75;11.20;;;18.00;99.90;;;;;;4998670;28;20053;-71
2023/06/16 00:05:47;;;;;;;15.60;10.88;;;17.90;99.90;;;;;;5003970;28;20133;-71
2023/06/16 00:08:14;;;;;;;11.02;9.80;;;17.90;99.90;;;;;;4998512;28;20050;-71
2023/06/16 00:10:40;;;;;;;13.05;9.82;;;17.80;99.90;;;;;;4998094;28;20383;-71
2023/06/16 00:13:07;;;;;;;14.48;11.30;;;17.80;99.90;;;;;;4996911;28;20048;-71
2023/06/16 00:15:32;;;;;;;15.57;11.23;;;17.80;99.90;;;;;;4998149;28;20026;-71
2023/06/16 00:17:58;;;;;;;14.45;10.77;;;17.80;99.90;;;;;;4998312;28;20100;-71
2023/06/16 00:20:26;;;;;;;18.63;12.10;;;17.70;99.90;;;;;;4992416;28;20038;-71
2023/06/16 00:22:52;;;;;;;14.27;11.38;;;17.70;99.90;;;;;;4998441;28;20467;-71
2023/06/16 00:25:18;;;;;;;13.60;11.40;;;17.60;99.90;;;;;;4997833;28;20403;-71
2023/06/16 00:27:45;;;;;;;17.40;12.40;;;17.50;99.90;;;;;;4997880;28;20028;-71
2023/06/16 00:30:11;;;;;;;17.30;13.13;;;17.50;99.90;;;;;;4998041;28;20658;-71
2023/06/16 00:32:37;;;;;;;15.60;12.60;;;17.50;99.90;;;;;;4997762;28;20077;-71
2023/06/16 00:35:02;;;;;;;15.63;13.07;;;17.40;99.90;;;;;;4997566;28;20038;-71
2023/06/16 00:37:28;;;;;;;15.25;13.60;;;17.30;99.90;;;;;;4997854;28;20128;-71
2023/06/16 00:39:55;;;;;;;15.93;12.88;;;17.30;99.90;;;;;;4980335;28;20042;-71
2023/06/16 00:42:20;;;;;;;15.77;13.40;;;17.30;99.90;;;;;;4987329;28;20086;-71
2023/06/16 00:44:46;;;;;;;10.73;9.60;;;17.20;99.90;;;;;;4997840;28;20454;-71
2023/06/16 00:47:12;;;;;;;11.30;9.60;;;17.20;99.90;;;;;;4997883;28;20014;-71
2023/06/16 00:49:38;;;;;;;14.10;10.45;;;17.20;99.90;;;;;;4976674;28;20026;-71
2023/06/16 00:52:09;;;;;;;12.20;9.73;;;17.20;99.90;;;;;;4991476;28;20041;-71
2023/06/16 00:54:36;;;;;;;16.25;10.23;;;17.20;99.90;;;;;;4997713;28;20474;-71
2023/06/16 00:57:02;;;;;;;12.35;9.60;;;17.20;99.90;;;;;;4997675;28;20113;-71
2023/06/16 00:59:29;;;;;;;10.63;9.48;;;17.20;99.90;;;;;;4997192;28;20030;-71
2023/06/16 01:01:57;;;;;;;11.07;8.60;;;17.20;99.90;;;;;;4980083;28;20023;-71
2023/06/16 01:04:23;;;;;;;11.23;9.20;;;17.20;99.90;;;;;;4999529;28;20018;-71
2023/06/16 01:07:09;;;;;;;12.73;8.60;;;17.20;99.90;;;;;;4997346;28;20038;-71
2023/06/16 01:09:44;;;;;;;11.27;9.60;;;17.20;99.90;;;;;;4988611;28;20030;-71
2023/06/16 01:12:37;;;;;;;9.82;8.63;;;17.20;99.90;;;;;;4997224;28;20018;-71
2023/06/16 01:15:04;;;;;;;12.73;9.65;;;17.10;99.90;;;;;;4998767;28;20101;-71
2023/06/16 01:17:37;;;;;;;12.65;9.82;;;17.10;99.90;;;;;;4997597;28;20096;-71
2023/06/16 01:20:56;;;;;;;15.32;10.02;;;17.10;99.90;;;;;;4997162;28;20035;-71
2023/06/16 01:23:53;;;;;;;11.60;9.45;;;17.10;99.90;;;;;;4899293;29;20068;-71
2023/06/16 01:26:22;;;;;;;16.88;10.80;;;17.00;99.90;;;;;;4953141;28;20031;-71
2023/06/16 01:28:49;;;;;;;13.23;11.82;;;16.90;99.90;;;;;;4996895;28;20109;-71
2023/06/16 01:31:17;;;;;;;14.75;11.45;;;16.90;99.90;;;;;;4997357;28;20030;-71
2023/06/16 01:33:46;;;;;;;16.52;12.45;;;16.90;99.90;;;;;;4987003;28;20050;-71
2023/06/16 01:36:13;;;;;;;14.38;12.88;;;16.90;99.90;;;;;;4997188;28;20061;-71
2023/06/16 01:38:41;;;;;;;14.07;12.30;;;16.90;99.90;;;;;;4997140;28;20014;-71
2023/06/16 01:41:08;;;;;;;15.07;11.75;;;16.90;99.90;;;;;;4997038;28;20069;-71
2023/06/16 01:43:35;;;;;;;15.00;12.93;;;16.80;99.90;;;;;;4997009;28;20033;-71
2023/06/16 01:46:01;;;;;;;16.88;12.00;;;16.80;99.90;;;;;;4997537;28;20092;-71
2023/06/16 01:48:27;;;;;;;15.90;12.88;;;16.80;99.90;;;;;;5001247;28;20061;-71
2023/06/16 01:50:53;;;;;;;16.95;13.63;;;16.80;99.90;;;;;;5000959;28;20081;-71
2023/06/16 01:53:19;;;;;;;14.48;12.27;;;16.80;99.90;;;;;;5000917;28;20023;-71
2023/06/16 01:55:49;;;;;;;14.07;12.57;;;16.80;99.90;;;;;;5000689;28;20030;-71
2023/06/16 01:58:16;;;;;;;14.98;13.13;;;16.70;99.90;;;;;;4983207;28;20054;-71
2023/06/16 02:01:13;;;;;;;15.73;12.98;;;16.70;99.90;;;;;;4986139;28;20030;-71
2023/06/16 02:03:45;;;;;;;19.48;13.75;;;16.70;99.90;;;;;;5002488;28;20018;-71
2023/06/16 02:06:23;;;;;;;15.07;11.70;;;16.60;99.90;;;;;;4985355;28;20050;-71
2023/06/16 02:08:53;;;;;;;14.50;11.25;;;16.60;99.90;;;;;;5020119;28;20057;-71
2023/06/16 02:11:19;;;;;;;14.65;11.10;;;16.50;99.90;;;;;;5020233;28;20026;-71
2023/06/16 02:13:45;;;;;;;15.20;11.23;;;16.40;99.90;;;;;;5018743;28;20386;-71
2023/06/16 02:16:12;;;;;;;14.68;11.98;;;16.40;99.90;;;;;;5020134;28;20025;-71
2023/06/16 02:18:38;;;;;;;16.40;11.70;;;16.40;99.90;;;;;;5020259;28;20108;-71
2023/06/16 02:21:04;;;;;;;17.02;12.02;;;16.40;99.90;;;;;;5020002;28;20021;-71
2023/06/16 02:23:30;;;;;;;13.38;11.98;;;16.40;99.90;;;;;;5019956;28;20018;-71
2023/06/16 02:25:55;;;;;;;11.75;10.55;;;16.40;99.90;;;;;;5019952;28;20033;-71
2023/06/16 02:28:21;;;;;;;14.15;12.23;;;16.30;99.90;;;;;;5019780;28;20176;-71
2023/06/16 02:30:47;;;;;;;14.18;12.20;;;16.30;99.90;;;;;;5019840;28;20568;-71
2023/06/16 02:33:15;;;;;;;16.48;12.48;;;16.30;99.90;;;;;;5019758;28;20034;-71
2023/06/16 02:35:41;;;;;;;14.73;11.95;;;16.30;99.90;;;;;;5019851;28;20033;-71
2023/06/16 02:38:07;;;;;;;13.82;12.20;;;16.30;99.90;;;;;;5002903;28;20372;-71
2023/06/16 02:40:33;;;;;;;13.48;12.07;;;16.30;99.90;;;;;;5019763;28;20030;-71
2023/06/16 02:42:59;;;;;;;15.98;12.15;;;16.30;99.90;;;;;;5019411;28;20022;-71
2023/06/16 02:45:24;;;;;;;16.45;13.80;;;16.20;99.90;;;;;;5019850;28;20030;-71
2023/06/16 02:47:50;;;;;;;16.67;12.80;;;16.20;99.90;;;;;;5019525;28;20088;-71
2023/06/16 02:50:16;;;;;;;15.23;11.73;;;16.10;99.90;;;;;;5019464;28;20524;-71
2023/06/16 02:52:42;;;;;;;16.02;13.68;;;16.20;99.90;;;;;;5001783;28;20417;-71
2023/06/16 02:55:13;;;;;;;15.50;12.25;;;16.10;99.90;;;;;;5019311;28;20087;-71
2023/06/16 02:57:38;;;;;;;;;;;16.10;99.90;;;;;;5019039;28;20081;-71
2023/06/16 03:00:09;;;;;;;13.82;11.63;;;16.10;99.90;;;;;;5011672;28;20412;-71
2023/06/16 03:02:35;;;;;;;19.10;13.25;;;16.10;99.90;;;;;;5018956;28;20026;-71
2023/06/16 03:05:01;;;;;;;19.40;12.70;;;16.00;99.90;;;;;;5020977;28;20043;-71
2023/06/16 03:07:31;;;;;;;17.83;13.23;;;16.10;99.90;;;;;;4998596;28;20034;-71
2023/06/16 03:09:57;;;;;;;13.95;12.23;;;16.10;99.90;;;;;;4999744;28;20018;-71
2023/06/16 03:12:23;;;;;;;14.75;12.00;;;16.10;99.90;;;;;;4989880;28;20521;-71
2023/06/16 03:14:48;;;;;;;16.63;10.73;;;16.00;99.90;;;;;;5004807;28;20399;-71
2023/06/16 03:17:14;;;;;;;14.68;12.15;;;16.00;99.90;;;;;;4999301;28;20038;-70
2023/06/16 03:19:43;;;;;;;14.13;12.20;;;16.00;99.90;;;;;;4981952;28;20027;-71
2023/06/16 03:22:08;;;;;;;16.50;12.93;;;15.90;99.90;;;;;;4976548;28;20026;-71
2023/06/16 03:24:34;;;;;;;16.30;13.25;;;15.90;99.90;;;;;;4981917;28;20513;-71
2023/06/16 03:27:03;;;;;;;15.40;12.48;;;16.00;99.90;;;;;;4999104;28;20021;-71
2023/06/16 03:29:29;;;;;;;15.05;12.00;;;15.90;99.90;;;;;;4999115;28;20109;-71
2023/06/16 03:31:55;;;;;;;13.77;12.13;;;15.90;99.90;;;;;;4999147;28;20049;-71
2023/06/16 03:34:20;;;;;;;13.23;11.63;;;15.90;99.90;;;;;;4981803;28;20057;-70
2023/06/16 03:36:46;;;;;;;14.07;12.57;;;15.80;99.90;;;;;;4998996;28;20026;-70
2023/06/16 03:39:14;;;;;;;15.25;12.57;;;15.80;99.90;;;;;;4998995;28;20414;-70
2023/06/16 03:41:39;;;;;;;14.98;12.50;;;15.70;99.90;;;;;;4999000;28;20023;-70
2023/06/16 03:44:05;;;;;;;19.17;13.20;;;15.70;99.90;;;;;;4981219;28;20033;-70
2023/06/16 03:46:31;;;;;;;16.33;13.05;;;15.70;99.90;;;;;;4998689;28;20578;-70
2023/06/16 03:48:57;;;;;;;19.58;13.75;;;15.80;99.90;;;;;;4998815;28;20026;-71
2023/06/16 03:51:24;;;;;;;14.50;11.88;;;15.70;99.90;;;;;;4998567;28;20046;-70
2023/06/16 03:53:51;;;;;;;14.90;12.00;;;15.70;99.90;;;;;;4981254;28;20538;-70
2023/06/16 03:56:17;;;;;;;14.05;12.52;;;15.60;99.90;;;;;;4998728;28;20089;-70
2023/06/16 03:58:43;;;;;;;13.98;12.15;;;15.60;99.90;;;;;;4980753;28;20038;-70
2023/06/16 04:01:09;;;;;;;14.73;12.48;;;15.60;99.90;;;;;;4998591;28;20030;-70
2023/06/16 04:03:35;;;;;;;15.88;12.65;;;15.50;99.90;;;;;;4999350;28;20019;-70
2023/06/16 04:06:01;;;;;;;17.52;13.82;;;15.60;99.90;;;;;;5013610;28;20088;-70
2023/06/16 04:08:27;;;;;;;15.80;13.57;;;15.50;99.90;;;;;;5017486;28;20058;-70
2023/06/16 04:10:57;;;;;;;15.65;13.10;;;15.60;99.90;;;;;;5007831;28;20489;-70
2023/06/16 04:13:25;;;;;;;14.13;12.27;;;15.50;99.90;;;;;;5019173;28;20038;-70
2023/06/16 04:15:51;;;;;;;14.90;11.90;;;15.50;99.90;;;;;;5021532;28;20038;-70
2023/06/16 04:18:17;;;;;;;14.13;12.55;;;15.50;99.90;;;;;;5017875;28;20038;-70
2023/06/16 04:20:42;;;;;;;16.45;12.10;;;15.50;99.90;;;;;;5017670;28;20113;-70
2023/06/16 04:23:09;;;;;;;13.75;11.68;;;15.50;99.90;;;;;;5006468;28;20096;-69
2023/06/16 04:25:35;;;;;;;17.60;12.75;;;15.40;99.90;;;;;;5017855;28;20026;-70
2023/06/16 04:28:02;;;;;;;15.80;13.13;;;15.50;99.90;;;;;;5017473;28;20068;-70
2023/06/16 04:30:30;;;;;;;16.40;13.57;;;15.50;99.90;;;;;;5017631;28;20490;-70
2023/06/16 04:32:58;;;;;;;16.35;13.10;;;15.50;99.90;;;;;;5017858;28;20025;-70
2023/06/16 04:35:27;;;;;;;15.55;12.52;;;15.50;99.90;;;;;;5017362;28;20393;-70
2023/06/16 04:37:57;;;;;;;16.13;12.63;;;15.50;99.90;;;;;;5017673;28;20056;-69
2023/06/16 04:40:26;;;;;;;17.43;13.23;;;15.60;99.90;;;;;;5017314;28;20083;-69
2023/06/16 04:42:52;;;;;;;17.30;14.88;;;15.60;99.90;;;;;;5017476;28;20028;-69
2023/06/16 04:45:20;;;;;;;17.00;14.30;;;15.70;99.90;;;;;;5017609;28;20054;-70
2023/06/16 04:47:46;;;;;;;21.70;14.55;;;15.70;99.90;;;;;;5017400;28;20033;-70
2023/06/16 04:50:13;;;;;;;19.40;14.35;;;15.70;99.90;;;;;;5017304;28;20026;-70
2023/06/16 04:52:39;;;;;;;19.63;13.32;;;15.80;99.90;;;;;;5017228;28;20060;-70
2023/06/16 04:55:06;;;;;;;17.73;13.57;;;15.80;99.90;;;;;;5017231;28;20422;-71
2023/06/16 04:57:33;;;;;;;17.35;13.43;;;15.80;99.90;;;;;;5016907;28;20022;-70
2023/06/16 05:00:00;;;;;;;16.13;12.45;;;15.90;99.90;;;;;;5017053;28;20025;-71
2023/06/16 05:02:26;;;;;;;18.13;14.52;;;16.00;99.90;;;;;;5009855;28;20026;-71
2023/06/16 05:04:52;;;;;;;15.05;12.70;;;16.10;99.90;;;;;;5023085;28;20390;-71
2023/06/16 05:07:18;;;;;;;15.35;12.93;;;16.10;99.90;;;;;;5017141;28;20030;-70
2023/06/16 05:09:45;;;;;;;15.23;13.50;;;16.10;99.90;;;;;;5017141;28;20073;-71
2023/06/16 05:12:11;;;;;;;13.82;12.32;;;16.20;99.90;;;;;;5016499;28;20029;-71
2023/06/16 05:14:37;;;;;;;17.40;13.27;;;16.30;99.90;;;;;;5022020;28;20022;-71
2023/06/16 05:17:02;;;;;;;15.25;12.13;;;16.30;99.90;;;;;;4999279;28;20037;-70
2023/06/16 05:19:29;;;;;;;17.73;12.95;;;16.40;99.90;;;;;;5016809;28;20072;-71
2023/06/16 05:21:55;;;;;;;20.27;13.52;;;16.50;99.90;;;;;;5016637;28;20026;-71
2023/06/16 05:24:21;;;;;;;18.70;13.82;;;16.50;99.90;;;;;;5017017;28;20022;-71
2023/06/16 05:26:46;;;;;;;21.98;12.85;;;16.60;99.90;;;;;;5016770;28;20035;-71
2023/06/16 05:29:12;;;;;;;15.63;12.48;;;16.60;99.90;;;;;;5016473;28;20026;-71
2023/06/16 05:31:37;;;;;;;18.30;13.10;;;16.60;99.90;;;;;;5016860;28;20560;-71
2023/06/16 05:34:03;;;;;;;16.25;12.35;;;16.70;99.90;;;;;;5016821;28;20022;-70
2023/06/16 05:36:30;;;;;;;14.50;11.32;;;16.70;99.90;;;;;;5016810;28;20041;-71
2023/06/16 05:38:56;;;;;;;13.00;11.05;;;16.80;99.90;;;;;;5016549;28;20112;-71
2023/06/16 05:41:24;;;;;;;14.57;11.43;;;16.90;99.90;;;;;;5016431;28;20205;-71
2023/06/16 05:43:54;;;;;;;15.15;12.05;;;17.00;99.90;;;;;;5016450;28;20067;-70
2023/06/16 05:46:20;;;;;;;16.42;12.38;;;17.00;99.90;;;;;;5016598;28;20502;-71
2023/06/16 05:48:46;;;;;;;17.98;12.70;;;17.10;99.90;;;;;;5016751;28;20022;-70
2023/06/16 05:51:12;;;;;;;14.27;12.45;;;17.20;99.90;;;;;;5016702;28;20034;-70
2023/06/16 05:53:37;;;;;;;16.77;11.88;;;17.30;99.90;;;;;;5009593;28;21184;-70
2023/06/16 05:56:03;;;;;;;16.08;11.95;;;17.40;99.90;;;;;;5016485;28;20040;-70
2023/06/16 05:58:29;;;;;;;18.60;11.20;;;17.40;99.90;;;;;;5016182;28;20025;-70
2023/06/16 06:00:55;;;;;;;19.58;11.85;;;17.50;99.90;;;;;;5016533;28;20490;-71
2023/06/16 06:03:23;;;;;;;18.60;11.40;;;17.70;99.90;;;;;;5016803;28;20018;-70
2023/06/16 06:05:48;;;;;;;17.05;12.30;;;17.80;99.90;;;;;;5012429;28;20052;-71
2023/06/16 06:08:14;;;;;;;13.10;11.25;;;17.90;99.90;;;;;;4989529;28;20026;-71
2023/06/16 06:10:40;;;;;;;14.55;10.63;;;18.10;99.90;;;;;;4996603;28;20054;-71
2023/06/16 06:13:05;;;;;;;16.30;11.90;;;18.20;99.90;;;;;;4979011;28;20026;-71
2023/06/16 06:15:31;;;;;;;12.77;11.05;;;18.30;99.90;;;;;;4986967;28;20030;-70
2023/06/16 06:17:57;;;;;;;15.07;12.20;;;18.50;99.90;;;;;;4997028;28;20022;-71
2023/06/16 06:20:22;;;;;;;14.70;11.43;;;18.60;99.90;;;;;;4996477;28;20038;-70
2023/06/16 06:22:48;;;;;;;15.68;11.90;;;18.70;99.90;;;;;;4979328;28;20018;-70
2023/06/16 06:25:14;;;;;;;16.58;12.27;;;18.80;99.90;;;;;;4996655;28;20104;-70
2023/06/16 06:27:40;;;;;;;18.85;12.73;;;18.90;99.90;;;;;;4996478;28;20015;-71
2023/06/16 06:30:06;;;;;;;16.40;13.20;;;19.00;99.90;;;;;;4975736;28;20034;-71
2023/06/16 06:32:32;;;;;;;13.73;11.43;;;19.10;99.90;;;;;;4990157;28;20913;-71
2023/06/16 06:34:58;;;;;;;24.55;14.38;;;19.20;99.90;;;;;;5000065;28;20109;-71
2023/06/16 06:37:29;;;;;;;17.75;11.73;;;19.30;99.90;;;;;;4982851;28;20114;-70
2023/06/16 06:39:55;;;;;;;14.85;11.93;;;19.40;99.90;;;;;;4996254;28;20041;-70
2023/06/16 06:42:26;;;;;;;13.32;11.75;;;19.50;99.90;;;;;;4999838;28;20110;-71
2023/06/16 06:44:52;;;;;;;17.83;13.10;;;19.40;99.90;;;;;;4999762;28;20022;-71
2023/06/16 06:47:18;;;;;;;15.80;11.88;;;19.50;99.90;;;;;;4999917;28;20041;-71
2023/06/16 06:49:44;;;;;;;16.55;11.73;;;19.70;99.90;;;;;;4981948;28;20061;-71
2023/06/16 06:52:09;;;;;;;16.90;10.88;;;19.90;99.90;;;;;;5000000;28;20072;-71
2023/06/16 06:54:35;;;;;;;12.57;11.27;;;20.10;99.90;;;;;;4999738;28;20117;-70
2023/06/16 06:57:01;;;;;;;15.57;11.98;;;20.20;99.90;;;;;;4999420;28;20093;-70
2023/06/16 06:59:26;;;;;;;14.25;11.20;;;20.30;99.90;;;;;;4999484;28;20120;-71
2023/06/16 07:01:52;;;;;;;13.52;10.48;;;20.40;99.90;;;;;;4999634;28;20041;-71
2023/06/16 07:04:18;;;;;;;13.18;11.27;;;20.40;99.90;;;;;;5006015;28;20030;-70
2023/06/16 07:06:43;;;;;;;14.63;10.68;;;20.60;99.90;;;;;;5001715;28;20051;-70
2023/06/16 07:09:09;;;;;;;12.35;10.73;;;20.70;99.90;;;;;;4999554;28;20025;-70
2023/06/16 07:11:35;;;;;;;17.38;11.48;;;20.80;99.90;;;;;;4999158;28;20081;-70
2023/06/16 07:14:01;;;;;;;15.93;10.43;;;20.80;99.90;;;;;;5005308;28;20044;-71
2023/06/16 07:16:28;;;;;;;15.07;11.10;;;20.90;99.90;;;;;;5000223;28;20045;-70
2023/06/16 07:18:53;;;;;;;11.40;9.45;;;21.00;99.90;;;;;;4999511;28;20070;-70
2023/06/16 07:21:19;;;;;;;17.52;9.63;;;21.20;99.90;;;;;;4999368;28;20033;-70
2023/06/16 07:23:45;;;;;;;10.82;9.52;;;21.20;99.90;;;;;;4981886;28;20038;-70
2023/06/16 07:26:10;;;;;;;12.23;9.10;;;21.30;99.90;;;;;;4999513;28;20029;-70
2023/06/16 07:28:39;;;;;;;13.48;9.38;;;21.40;99.90;;;;;;4999155;28;20027;-70
2023/06/16 07:31:05;;;;;;;11.93;9.35;;;21.60;99.90;;;;;;4999372;28;20101;-70
2023/06/16 07:33:31;;;;;;;14.60;9.90;;;21.70;99.90;;;;;;4981679;28;20061;-70
2023/06/16 07:35:56;;;;;;;11.65;9.75;;;21.80;99.90;;;;;;4999503;28;20025;-70
2023/06/16 07:38:22;;;;;;;15.38;9.48;;;21.90;99.90;;;;;;4999211;28;20034;-70
2023/06/16 07:40:48;;;;;;;12.98;9.32;;;22.00;99.90;;;;;;4998999;28;20034;-70
2023/06/16 07:43:13;;;;;;;10.40;9.10;;;22.00;99.90;;;;;;4998828;28;20022;-70
2023/06/16 07:45:39;;;;;;;12.02;8.50;;;22.10;99.90;;;;;;4999013;28;20037;-70
2023/06/16 07:48:07;;;;;;;10.73;9.23;;;22.20;99.90;;;;;;4998743;28;20045;-70
2023/06/16 07:50:34;;;;;;;9.75;8.15;;;22.30;99.90;;;;;;4969075;28;20030;-70
2023/06/16 07:53:00;;;;;;;12.13;8.30;;;22.30;99.90;;;;;;4998990;28;20091;-70
2023/06/16 07:55:25;;;;;;;12.05;8.38;;;22.40;99.90;;;;;;4998827;28;20034;-70
2023/06/16 07:57:51;;;;;;;13.63;8.20;;;22.50;99.90;;;;;;4997426;28;20026;-71
2023/06/16 08:00:18;;;;;;;9.48;7.22;;;22.50;99.90;;;;;;4998560;28;20089;-69
2023/06/16 08:02:45;;;;;;;12.40;7.22;;;22.50;99.90;;;;;;4986888;28;20022;-70
2023/06/16 08:05:12;;;;;;;9.48;7.53;;;22.70;99.90;;;;;;5005549;28;20129;-70
2023/06/16 08:07:38;;;;;;;9.68;7.72;;;22.80;99.90;;;;;;4998664;28;20030;-69
2023/06/16 08:10:04;;;;;;;12.15;9.60;;;22.90;99.90;;;;;;4997819;28;20038;-70
2023/06/16 08:12:32;;;;;;;12.20;8.63;;;22.90;99.90;;;;;;4998200;28;20018;-71
2023/06/16 08:14:58;;;;;;;11.98;8.25;;;22.90;99.90;;;;;;4998156;28;20026;-70
2023/06/16 08:17:23;;;;;;;14.23;8.35;;;23.00;99.90;;;;;;4998203;28;20161;-70
2023/06/16 08:19:49;;;;;;;8.93;7.53;;;23.00;99.90;;;;;;4998350;28;20030;-70
2023/06/16 08:22:16;;;;;;;8.95;8.05;;;23.20;99.90;;;;;;4998248;28;20026;-70
2023/06/16 08:24:42;;;;;;;10.52;7.63;;;23.30;99.90;;;;;;4980873;28;20118;-69
2023/06/16 08:27:08;;;;;;;8.70;6.95;;;23.30;99.90;;;;;;4997857;28;20054;-69
2023/06/16 08:29:34;;;;;;;11.95;7.65;;;23.50;99.90;;;;;;4998176;28;20027;-69
2023/06/16 08:32:01;;;;;;;8.90;7.65;;;23.70;99.90;;;;;;4997957;28;20118;-70
2023/06/16 08:34:27;;;;;;;9.68;7.32;;;23.70;99.90;;;;;;4998030;28;20368;-71
2023/06/16 08:36:53;;;;;;;10.45;7.07;;;23.60;99.90;;;;;;4997959;28;20045;-70
2023/06/16 08:39:19;;;;;;;9.38;8.38;;;23.70;99.90;;;;;;4998020;28;20398;-70
2023/06/16 08:41:46;;;;;;;9.60;7.85;;;23.70;99.90;;;;;;4997859;28;20069;-70
2023/06/16 08:44:16;;;;;;;12.55;7.45;;;23.70;99.90;;;;;;4999291;28;20053;-72
2023/06/16 08:46:42;;;;;;;12.23;7.53;;;23.50;99.90;;;;;;5001426;28;20030;-70
2023/06/16 08:49:07;;;;;;;11.93;7.65;;;23.50;99.90;;;;;;4996900;28;20018;-70
2023/06/16 08:51:34;;;;;;;12.90;6.90;;;23.70;99.90;;;;;;4979707;28;20408;-70
2023/06/16 08:54:05;;;;;;;14.43;8.35;;;23.70;99.90;;;;;;4997750;28;20019;-70
2023/06/16 08:56:32;;;;;;;10.07;7.45;;;23.80;99.90;;;;;;4997015;28;20034;-71
2023/06/16 08:59:01;;;;;;;10.60;7.93;;;23.90;99.90;;;;;;4997345;28;20101;-70
2023/06/16 09:01:30;;;;;;;10.05;6.90;;;24.00;99.90;;;;;;4988096;28;20030;-70
2023/06/16 09:03:56;;;;;;;7.45;6.38;;;24.10;99.90;;;;;;4997424;28;20097;-70
2023/06/16 09:06:22;;;;;;;9.32;6.95;;;24.30;99.90;;;;;;5011317;28;20065;-70
2023/06/16 09:08:48;;;;;;;8.13;6.25;;;24.30;99.90;;;;;;5017197;28;20088;-70
2023/06/16 09:11:26;;;;;;;8.40;6.68;;;24.30;99.90;;;;;;4999237;28;20026;-71
2023/06/16 09:13:52;;;;;;;8.27;7.10;;;24.40;99.90;;;;;;5016805;28;20112;-70
2023/06/16 09:16:22;;;;;;;8.52;7.00;;;24.40;99.90;;;;;;5017237;28;20022;-70
2023/06/16 09:18:49;;;;;;;8.52;6.55;;;24.30;99.90;;;;;;4996300;28;20030;-70
2023/06/16 09:21:22;;;;;;;9.30;7.50;;;24.40;99.90;;;;;;5012284;28;20030;-70
2023/06/16 09:23:56;;;;;;;9.98;6.78;;;24.50;99.90;;;;;;5014480;28;20088;-70
2023/06/16 09:26:22;;;;;;;8.13;6.75;;;24.50;99.90;;;;;;4999094;28;20028;-71
2023/06/16 09:28:47;;;;;;;9.27;6.43;;;24.60;99.90;;;;;;5017038;28;20014;-71
2023/06/16 09:31:15;;;;;;;7.78;6.35;;;24.60;99.90;;;;;;5016591;28;20105;-70
2023/06/16 09:33:41;;;;;;;8.57;7.05;;;24.50;99.90;;;;;;4998682;28;20386;-70
2023/06/16 09:36:09;;;;;;;8.75;6.60;;;24.50;99.90;;;;;;5016350;28;20069;-70
2023/06/16 09:38:39;;;;;;;7.57;6.43;;;24.60;99.90;;;;;;5017235;28;20033;-71
2023/06/16 09:41:16;;;;;;;16.52;8.27;;;24.80;99.90;;;;;;5016529;28;20033;-70
2023/06/16 09:43:42;;;;;;;8.88;6.95;;;24.90;99.90;;;;;;5016506;28;20022;-70
2023/06/16 09:46:12;;;;;;;8.93;6.25;;;24.90;99.90;;;;;;5016650;28;20068;-70
2023/06/16 09:48:48;;;;;;;12.85;6.65;;;25.00;99.90;;;;;;5008441;28;20021;-70
2023/06/16 09:51:21;;;;;;;13.50;5.82;;;25.10;99.90;;;;;;5016702;28;20083;-70
2023/06/16 09:53:48;;;;;;;10.73;6.40;;;25.20;99.90;;;;;;5016794;28;20014;-70
2023/06/16 09:56:17;;;;;;;8.48;7.05;;;25.30;99.90;;;;;;5016662;28;20049;-70
2023/06/16 09:58:44;;;;;;;8.25;6.25;;;25.50;99.90;;;;;;5016227;28;20379;-70
2023/06/16 10:01:13;;;;;;;9.18;6.55;;;25.50;99.90;;;;;;5016694;28;20026;-70
2023/06/16 10:03:43;;;;;;;9.05;7.47;;;25.40;99.90;;;;;;5013102;28;20010;-70
2023/06/16 10:06:30;;;;;;;7.28;6.30;;;25.30;99.90;;;;;;5010027;28;20502;-70
2023/06/16 10:08:57;;;;;;;8.60;6.35;;;25.30;99.90;;;;;;5000018;28;20015;-71
2023/06/16 10:11:23;;;;;;;10.82;6.18;;;25.40;99.90;;;;;;5000719;28;20045;-71
2023/06/16 10:13:53;;;;;;;8.98;6.70;;;25.60;99.90;;;;;;4982638;28;20026;-71
2023/06/16 10:16:25;;;;;;;10.55;6.60;;;25.60;99.90;;;;;;5000802;28;20514;-70
2023/06/16 10:18:53;;;;;;;10.48;7.07;;;25.70;99.90;;;;;;5000443;28;20034;-71
2023/06/16 10:21:19;;;;;;;7.38;6.43;;;25.60;99.90;;;;;;5000590;28;20395;-70
2023/06/16 10:23:45;;;;;;;8.20;6.70;;;25.60;99.90;;;;;;5000514;28;20018;-71
2023/06/16 10:26:13;;;;;;;9.75;6.20;;;25.50;99.90;;;;;;5000419;28;20061;-71
2023/06/16 10:28:39;;;;;;;9.68;5.82;;;25.60;99.90;;;;;;4999765;28;20022;-71
2023/06/16 10:31:05;;;;;;;9.30;6.40;;;25.70;99.90;;;;;;5000260;28;20026;-70
2023/06/16 10:33:57;;;;;;;9.07;6.30;;;25.80;99.90;;;;;;4982742;28;20117;-71
2023/06/16 10:36:24;;;;;;;7.82;5.95;;;25.80;99.90;;;;;;5000274;28;20026;-71
2023/06/16 10:38:59;;;;;;;8.15;5.82;;;25.90;99.90;;;;;;5000272;28;20518;-71
2023/06/16 10:41:29;;;;;;;7.95;6.03;;;25.90;99.90;;;;;;4999752;28;20102;-70
2023/06/16 10:43:55;;;;;;;6.03;5.20;;;26.00;99.90;;;;;;4998932;28;20014;-70
2023/06/16 10:46:21;;;;;;;7.63;5.75;;;26.10;99.90;;;;;;4999599;28;20349;-70
2023/06/16 10:48:56;;;;;;;6.72;5.90;;;26.10;99.90;;;;;;5000062;28;20026;-71
2023/06/16 10:51:50;;;;;;;9.77;6.00;;;26.30;99.90;;;;;;4982386;28;20026;-70
2023/06/16 10:54:36;;;;;;;8.52;5.68;;;26.40;99.90;;;;;;4999693;28;20100;-70
2023/06/16 10:57:10;;;;;;;8.38;6.07;;;26.50;99.90;;;;;;4991369;28;20022;-70
2023/06/16 10:59:54;;;;;;;10.82;6.22;;;26.60;99.90;;;;;;4980783;28;20589;-71
2023/06/16 11:02:32;;;;;;;6.60;5.82;;;26.50;99.90;;;;;;5005902;28;20026;-70
2023/06/16 11:05:22;;;;;;;9.15;6.32;;;26.60;99.90;;;;;;5008162;28;20022;-71
2023/06/16 11:07:58;;;;;;;7.22;6.32;;;26.60;99.90;;;;;;4992376;28;20027;-70
2023/06/16 11:10:24;;;;;;;5.93;5.32;;;26.60;99.90;;;;;;4999585;28;20030;-70
2023/06/16 11:12:50;;;;;;;6.38;5.45;;;26.70;99.90;;;;;;4999316;28;20053;-70
2023/06/16 11:15:18;;;;;;;8.23;5.18;;;26.90;99.90;;;;;;5007491;28;20026;-70
2023/06/16 11:17:45;;;;;;;7.30;5.82;;;26.80;99.90;;;;;;4999128;28;20130;-70
2023/06/16 11:20:13;;;;;;;6.35;5.00;;;27.00;99.90;;;;;;4999111;28;20037;-70
2023/06/16 11:22:39;;;;;;;6.90;5.60;;;27.00;99.90;;;;;;4999411;28;20562;-71
2023/06/16 11:25:05;;;;;;;8.05;5.57;;;27.00;99.90;;;;;;4999240;28;20048;-71
2023/06/16 11:27:31;;;;;;;7.57;5.15;;;27.10;99.90;;;;;;4999183;28;20022;-70
2023/06/16 11:29:59;;;;;;;6.60;5.03;;;27.20;99.90;;;;;;4999158;28;20069;-70
2023/06/16 11:32:32;;;;;;;7.40;5.00;;;27.30;99.90;;;;;;4999401;28;20026;-70
2023/06/16 11:34:59;;;;;;;7.32;5.00;;;27.20;99.90;;;;;;4999003;28;20030;-70
2023/06/16 11:37:50;;;;;;;6.68;4.57;;;27.10;99.90;;;;;;4999345;28;20041;-71
2023/06/16 11:40:42;;;;;;;5.60;4.57;;;27.30;99.90;;;;;;4979856;28;20126;-70
2023/06/16 11:43:08;;;;;;;6.68;5.07;;;27.20;99.90;;;;;;4987737;28;20042;-71
2023/06/16 11:45:39;;;;;;;7.82;5.20;;;27.30;99.90;;;;;;4998951;28;20110;-70
2023/06/16 11:48:09;;;;;;;7.82;5.57;;;27.40;99.90;;;;;;4998889;28;20022;-70
2023/06/16 11:50:36;;;;;;;6.97;5.50;;;27.40;99.90;;;;;;4992292;28;20428;-70
2023/06/16 11:53:01;;;;;;;5.93;5.00;;;27.60;99.90;;;;;;4998710;28;20502;-70
2023/06/16 11:55:27;;;;;;;8.85;4.80;;;27.50;99.90;;;;;;4998780;28;20402;-71
2023/06/16 11:57:53;;;;;;;5.25;4.63;;;27.40;99.90;;;;;;4998304;28;20030;-70
2023/06/16 12:00:21;;;;;;;4.78;4.25;;;27.50;99.90;;;;;;4981222;28;20100;-70
2023/06/16 12:02:48;;;;;;;6.93;5.13;;;27.60;99.90;;;;;;4998449;28;20434;-70
2023/06/16 12:05:26;;;;;;;6.38;5.45;;;27.70;99.90;;;;;;5001506;28;20096;-70
2023/06/16 12:07:52;;;;;;;5.75;4.82;;;27.60;99.90;;;;;;4997405;28;20025;-70
2023/06/16 12:10:18;;;;;;;6.57;5.20;;;27.70;99.90;;;;;;4998484;28;20109;-70
2023/06/16 12:12:45;;;;;;;8.85;4.93;;;27.80;99.90;;;;;;4997911;28;20524;-70
2023/06/16 12:15:19;;;;;;;5.78;4.85;;;27.90;99.90;;;;;;5002393;28;20030;-71
2023/06/16 12:17:47;;;;;;;8.90;4.60;;;27.90;99.90;;;;;;4989025;28;20049;-70
2023/06/16 12:20:13;;;;;;;7.13;5.05;;;28.00;99.90;;;;;;4978836;28;20027;-74
2023/06/16 12:22:39;;;;;;;6.38;5.18;;;27.90;99.90;;;;;;4993418;28;20025;-74
2023/06/16 12:25:13;;;;;;;6.43;5.05;;;28.00;99.90;;;;;;4979751;28;20030;-73
2023/06/16 12:27:49;;;;;;;8.00;5.15;;;28.20;99.90;;;;;;4997384;28;20019;-74
2023/06/16 12:30:15;;;;;;;10.60;4.68;;;28.30;99.90;;;;;;5003252;28;20034;-72
2023/06/16 12:32:42;;;;;;;7.40;5.32;;;28.30;99.90;;;;;;4991136;28;20466;-74
2023/06/16 12:35:08;;;;;;;7.55;4.63;;;28.40;99.90;;;;;;4977395;28;20491;-70
2023/06/16 12:37:34;;;;;;;9.98;4.85;;;28.50;99.90;;;;;;4997942;28;20054;-70
2023/06/16 12:40:14;;;;;;;6.65;4.88;;;28.40;99.90;;;;;;4997760;28;20045;-69